createdAt,value
2022-10-23T00:03:26.547Z,96466.06
2022-10-23T00:08:28.677Z,96444.97
2022-10-23T00:13:31.007Z,96420.50
2022-10-23T00:18:33.850Z,96444.81
2022-10-23T00:23:36.109Z,96431.91
2022-10-23T00:28:38.749Z,96449.34
2022-10-23T00:33:42.053Z,96420.06
2022-10-23T00:38:45.153Z,96419.16
2022-10-23T00:44:01.615Z,96421.44
2022-10-23T00:49:05.690Z,96452.75
2022-10-23T00:54:23.542Z,96459.94
2022-10-23T00:59:27.772Z,96454.19
2022-10-23T01:04:30.978Z,96444.66
2022-10-23T01:09:42.606Z,96453.19
2022-10-23T01:15:03.163Z,96474.84
2022-10-23T01:20:25.634Z,96481.91
2022-10-23T01:25:52.410Z,96472.53
2022-10-23T01:30:58.364Z,96457.56
2022-10-23T01:36:12.593Z,96460.56
2022-10-23T01:41:21.491Z,96490.31
2022-10-23T01:46:26.300Z,96482.28
2022-10-23T01:51:31.336Z,96511.28
2022-10-23T01:56:42.246Z,96513.84
2022-10-23T02:01:48.849Z,96508.81
2022-10-23T02:06:51.450Z,96488.00
2022-10-23T02:12:25.253Z,96498.97
2022-10-23T02:18:12.120Z,96502.63
2022-10-23T02:23:28.053Z,96552.44
2022-10-23T02:28:40.657Z,96541.28
2022-10-23T02:33:47.251Z,96562.34
2022-10-23T02:38:49.734Z,96576.19
2022-10-23T02:44:10.358Z,96595.19
2022-10-23T02:49:20.505Z,96594.25
2022-10-23T02:54:42.035Z,96565.59
2022-10-23T02:59:47.702Z,96588.00
2022-10-23T03:04:54.148Z,96611.16
2022-10-23T03:09:56.607Z,96645.84
2022-10-23T03:14:58.967Z,96635.69
2022-10-23T03:20:01.141Z,96630.84
2022-10-23T03:25:03.658Z,96651.91
2022-10-23T03:30:08.309Z,96660.00
2022-10-23T03:35:13.121Z,96662.34
2022-10-23T03:40:15.562Z,96652.13
2022-10-23T03:45:17.902Z,96665.50
2022-10-23T03:50:20.677Z,96677.47
2022-10-23T03:55:23.562Z,96661.31
2022-10-23T04:00:27.932Z,96659.13
2022-10-23T04:05:30.370Z,96656.16
2022-10-23T04:10:34.117Z,96672.78
2022-10-23T04:15:36.682Z,96652.44
2022-10-23T04:20:39.152Z,96659.53
2022-10-23T04:25:41.585Z,96679.22
2022-10-23T04:30:44.210Z,96665.31
2022-10-23T04:35:47.914Z,96672.31
2022-10-23T04:40:50.271Z,96682.00
2022-10-23T04:45:56.463Z,96674.56
2022-10-23T04:51:02.158Z,96631.56
2022-10-23T04:56:24.502Z,96681.97
2022-10-23T05:01:36.106Z,96656.34
2022-10-23T05:06:41.193Z,96659.50
2022-10-23T05:12:06.481Z,96663.31
2022-10-23T05:17:14.308Z,96676.06
2022-10-23T05:22:18.786Z,96701.19
2022-10-23T05:27:23.694Z,96689.81
2022-10-23T05:32:31.640Z,96705.00
2022-10-23T05:37:37.386Z,96716.91
2022-10-23T05:42:54.995Z,96722.41
2022-10-23T05:48:17.038Z,96732.31
2022-10-23T05:53:56.065Z,96703.81
2022-10-23T05:59:10.514Z,96704.81
2022-10-23T06:04:30.388Z,96685.53
2022-10-23T06:09:53.453Z,96745.91
2022-10-23T06:14:56.886Z,96749.25
2022-10-23T06:20:16.139Z,96718.56
2022-10-23T06:25:33.354Z,96736.75
2022-10-23T06:30:40.298Z,96720.44
2022-10-23T06:35:46.127Z,96735.22
2022-10-23T06:53:28.643Z,96685.75
2022-10-23T06:58:45.223Z,96712.03
2022-10-23T07:04:43.055Z,96753.50
2022-10-23T07:09:53.102Z,96756.34
2022-10-23T07:14:59.875Z,96752.56
2022-10-23T07:20:02.532Z,96724.56
2022-10-23T07:25:05.726Z,96753.59
2022-10-23T07:30:13.946Z,96747.97
2022-10-23T07:35:24.936Z,96733.63
2022-10-23T07:40:38.773Z,96730.94
2022-10-23T07:45:46.756Z,96764.69
2022-10-23T07:51:04.180Z,96754.25
2022-10-23T07:56:18.745Z,96761.28
2022-10-23T08:01:56.862Z,96755.56
2022-10-23T08:07:05.840Z,96750.59
2022-10-23T08:12:15.471Z,96749.88
2022-10-23T08:17:19.005Z,96751.81
2022-10-23T08:22:37.475Z,96747.78
2022-10-23T08:27:40.488Z,96751.50
2022-10-23T08:32:43.161Z,96768.00
2022-10-23T08:37:47.665Z,96750.38
2022-10-23T08:43:22.169Z,96729.00
2022-10-23T08:48:51.754Z,96739.28
2022-10-23T08:54:55.892Z,96785.38
2022-10-23T09:00:12.695Z,96764.28
2022-10-23T09:05:25.467Z,96773.88
2022-10-23T09:10:51.531Z,96791.94
2022-10-23T09:16:03.972Z,96777.66
2022-10-23T09:21:10.381Z,96774.34
2022-10-23T09:26:18.495Z,96772.66
2022-10-23T09:31:21.160Z,96742.09
2022-10-23T09:36:29.479Z,96736.13
2022-10-23T09:41:37.678Z,96758.44
2022-10-23T09:52:08.683Z,96753.69
2022-10-23T09:57:32.394Z,96745.53
2022-10-23T10:02:36.892Z,96743.69
2022-10-23T10:08:04.182Z,96763.41
2022-10-23T10:13:34.822Z,96727.53
2022-10-23T10:18:47.877Z,96733.09
2022-10-23T10:24:12.836Z,96752.38
2022-10-23T10:29:52.497Z,96717.66
2022-10-23T10:35:19.516Z,96717.75
2022-10-23T10:40:35.719Z,96709.00
2022-10-23T10:45:52.783Z,96691.16
2022-10-23T10:50:59.389Z,96704.09
2022-10-23T10:56:19.374Z,96694.94
2022-10-23T11:01:28.374Z,96715.34
2022-10-23T11:06:36.473Z,96690.22
2022-10-23T11:11:41.192Z,96681.63
2022-10-23T11:17:10.462Z,96700.75
2022-10-23T11:22:34.603Z,96708.63
2022-10-23T11:27:42.993Z,96690.63
2022-10-23T11:33:17.306Z,96662.63
2022-10-23T11:38:30.240Z,96679.28
2022-10-23T11:43:55.501Z,96666.63
2022-10-23T11:48:58.791Z,96699.38
2022-10-23T11:54:16.433Z,96708.75
2022-10-23T11:59:29.534Z,96684.03
2022-10-23T12:04:45.867Z,96688.25
2022-10-23T12:10:01.669Z,96682.91
2022-10-23T12:15:20.086Z,96659.31
2022-10-23T12:20:39.524Z,96668.56
2022-10-23T12:25:57.980Z,96662.09
2022-10-23T12:31:31.664Z,96684.97
2022-10-23T12:36:45.758Z,96696.34
2022-10-23T12:41:48.098Z,96700.31
2022-10-23T12:46:54.706Z,96685.16
2022-10-23T12:52:04.784Z,96699.16
2022-10-23T12:57:26.413Z,96680.69
2022-10-23T13:02:33.155Z,96712.38
2022-10-23T13:07:44.795Z,96702.72
2022-10-23T13:13:02.983Z,96722.75
2022-10-23T13:18:07.509Z,96715.72
2022-10-23T13:23:33.132Z,96718.28
2022-10-23T13:28:43.177Z,96690.25
2022-10-23T13:34:09.975Z,96700.34
2022-10-23T13:39:12.769Z,96713.50
2022-10-23T13:44:17.460Z,96716.28
2022-10-23T13:49:20.470Z,96708.31
2022-10-23T13:59:30.386Z,96666.25
2022-10-23T14:04:32.611Z,96721.28
2022-10-23T14:09:34.750Z,96699.69
2022-10-23T14:14:37.208Z,96675.28
2022-10-23T14:19:39.567Z,96693.22
2022-10-23T14:24:41.845Z,96691.53
